createdAt,value
2023-10-05T00:00:41.694Z,99196.25
2023-10-05T00:01:57.503Z,99193.69
2023-10-05T00:03:00.148Z,99190.91
2023-10-05T00:04:02.992Z,99197.22
2023-10-05T00:05:06.295Z,99189.72
2023-10-05T00:06:15.469Z,99191.47
2023-10-05T00:07:28.725Z,99189.34
2023-10-05T00:08:32.981Z,99192.31
2023-10-05T00:09:35.644Z,99192.13
2023-10-05T00:10:38.340Z,99199.25
2023-10-05T00:11:41.143Z,99194.34
2023-10-05T00:12:43.734Z,99192.16
2023-10-05T00:13:46.292Z,99185.66
2023-10-05T00:15:17.270Z,99187.66
2023-10-05T00:16:23.730Z,99191.00
2023-10-05T00:17:27.536Z,99190.22
2023-10-05T00:18:30.105Z,99188.06
2023-10-05T00:19:36.571Z,99191.03
2023-10-05T00:20:41.605Z,99187.09
2023-10-05T00:21:58.041Z,99183.53
2023-10-05T00:23:04.477Z,99191.81
2023-10-05T00:24:08.449Z,99182.34
2023-10-05T00:25:11.616Z,99183.53
2023-10-05T00:26:14.949Z,99179.41
2023-10-05T00:27:21.115Z,99185.53
2023-10-05T00:28:27.573Z,99183.97
2023-10-05T00:29:30.573Z,99178.44
2023-10-05T00:30:34.564Z,99187.72
2023-10-05T00:31:40.765Z,99182.78
2023-10-05T00:32:48.645Z,99183.56
2023-10-05T00:33:57.347Z,99177.28
2023-10-05T00:35:16.259Z,99179.25
2023-10-05T00:36:19.318Z,99176.28
2023-10-05T00:37:21.964Z,99174.91
2023-10-05T00:38:26.101Z,99169.78
2023-10-05T00:39:33.160Z,99175.50
2023-10-05T00:40:40.309Z,99178.06
2023-10-05T00:41:42.857Z,99172.94
2023-10-05T00:42:45.471Z,99167.81
2023-10-05T00:43:48.112Z,99177.28
2023-10-05T00:44:50.712Z,99176.88
2023-10-05T00:45:58.563Z,99175.31
2023-10-05T00:47:01.744Z,99168.44
2023-10-05T00:48:21.375Z,99172.59
2023-10-05T00:49:29.127Z,99174.16
2023-10-05T00:50:35.162Z,99169.25
2023-10-05T00:51:39.989Z,99165.09
2023-10-05T00:52:45.207Z,99167.06
2023-10-05T00:53:48.657Z,99159.59
2023-10-05T00:54:57.875Z,99161.19
2023-10-05T00:56:13.243Z,99165.53
2023-10-05T00:57:16.460Z,99160.41
2023-10-05T00:58:19.134Z,99163.56
2023-10-05T00:59:22.235Z,99158.44
2023-10-05T01:00:29.271Z,99161.22
2023-10-05T01:01:50.775Z,99166.34
2023-10-05T01:03:23.449Z,99154.53
2023-10-05T01:04:46.744Z,99167.13
2023-10-05T01:06:11.961Z,99159.66
2023-10-05T01:07:29.296Z,99163.38
2023-10-05T01:08:33.517Z,99153.34
2023-10-05T01:09:57.885Z,99156.50
2023-10-05T01:11:02.999Z,99152.59
2023-10-05T01:12:06.227Z,99159.47
2023-10-05T01:13:33.586Z,99156.31
2023-10-05T01:14:46.758Z,99157.31
2023-10-05T01:15:53.874Z,99157.50
2023-10-05T01:17:00.091Z,99154.34
2023-10-05T01:18:04.070Z,99145.09
2023-10-05T01:19:09.859Z,99156.13
2023-10-05T01:20:20.610Z,99151.78
2023-10-05T01:21:26.286Z,99146.28
2023-10-05T01:22:40.680Z,99148.22
2023-10-05T01:23:45.040Z,99141.53
2023-10-05T01:24:50.024Z,99144.28
2023-10-05T01:25:52.912Z,99152.75
2023-10-05T01:26:55.540Z,99145.50
2023-10-05T01:27:58.184Z,99145.50
2023-10-05T01:29:00.856Z,99148.63
2023-10-05T01:30:08.387Z,99142.94
2023-10-05T01:31:22.468Z,99144.72
2023-10-05T01:32:27.751Z,99144.91
2023-10-05T01:33:30.783Z,99146.50
2023-10-05T01:34:33.400Z,99141.75
2023-10-05T01:35:39.137Z,99141.53
2023-10-05T01:36:43.533Z,99141.16
2023-10-05T01:37:52.296Z,99138.41
2023-10-05T01:39:09.507Z,99145.50
2023-10-05T01:40:21.935Z,99146.50
2023-10-05T01:41:27.765Z,99149.44
2023-10-05T01:42:34.404Z,99146.88
2023-10-05T01:43:37.264Z,99144.31
2023-10-05T01:44:48.629Z,99150.41
2023-10-05T01:45:51.406Z,99145.88
2023-10-05T01:46:58.966Z,99137.03
2023-10-05T01:48:06.402Z,99149.44
2023-10-05T01:49:09.838Z,99151.78
2023-10-05T01:50:20.499Z,99146.09
2023-10-05T01:51:25.248Z,99137.63
2023-10-05T01:52:31.755Z,99136.06
2023-10-05T01:53:34.648Z,99138.59
2023-10-05T01:54:38.090Z,99139.41
2023-10-05T01:55:40.819Z,99134.06
2023-10-05T01:56:46.028Z,99140.19
2023-10-05T01:57:49.908Z,99139.19
2023-10-05T01:58:55.409Z,99137.63
2023-10-05T02:00:00.323Z,99136.84
2023-10-05T02:01:04.466Z,99139.19
2023-10-05T02:02:17.097Z,99140.59
2023-10-05T02:03:23.948Z,99142.75
2023-10-05T02:04:26.586Z,99145.88
2023-10-05T02:05:31.799Z,99141.75
2023-10-05T02:06:43.817Z,99147.28
2023-10-05T02:07:47.144Z,99149.44
2023-10-05T02:08:49.968Z,99144.50
2023-10-05T02:09:53.724Z,99140.97
2023-10-05T02:10:56.471Z,99144.13
2023-10-05T02:12:02.968Z,99149.84
2023-10-05T02:13:06.533Z,99143.53
2023-10-05T02:14:13.226Z,99145.13
2023-10-05T02:15:17.613Z,99147.50
2023-10-05T02:16:22.414Z,99144.13
2023-10-05T02:17:25.178Z,99140.59
2023-10-05T02:18:28.234Z,99143.16
2023-10-05T02:19:31.555Z,99138.03
2023-10-05T02:20:34.459Z,99138.44
2023-10-05T02:21:39.670Z,99143.56
2023-10-05T02:22:46.097Z,99144.53
2023-10-05T02:23:52.748Z,99135.91
2023-10-05T02:24:56.856Z,99136.88
2023-10-05T02:26:04.748Z,99146.91
2023-10-05T02:27:10.948Z,99144.56
2023-10-05T02:28:24.456Z,99136.09
2023-10-05T02:29:29.881Z,99142.41
2023-10-05T02:30:33.352Z,99146.75
2023-10-05T02:31:36.131Z,99140.06
2023-10-05T02:32:40.717Z,99137.84
2023-10-05T02:33:44.679Z,99139.25
2023-10-05T02:35:00.347Z,99151.47
2023-10-05T02:36:21.744Z,99144.78
2023-10-05T02:37:25.980Z,99149.88
2023-10-05T02:38:29.497Z,99145.16
2023-10-05T02:39:36.406Z,99146.91
2023-10-05T02:40:47.718Z,99143.78
2023-10-05T02:41:52.236Z,99140.44
2023-10-05T02:42:55.843Z,99145.56
2023-10-05T02:43:59.554Z,99140.84
2023-10-05T02:45:06.320Z,99144.19
2023-10-05T02:46:13.003Z,99143.19
2023-10-05T02:47:23.889Z,99143.19
2023-10-05T02:48:27.087Z,99140.06
2023-10-05T02:49:29.737Z,99152.25
2023-10-05T02:50:33.514Z,99144.59
2023-10-05T02:51:38.622Z,99148.13
2023-10-05T02:52:41.610Z,99148.13
2023-10-05T02:53:48.146Z,99144.78
2023-10-05T02:54:51.025Z,99157.38
2023-10-05T02:55:55.360Z,99158.75
2023-10-05T02:56:57.925Z,99162.09
2023-10-05T02:58:00.687Z,99163.28
2023-10-05T02:59:08.701Z,99166.63
2023-10-05T03:00:13.824Z,99163.47
2023-10-05T03:01:17.218Z,99157.38
2023-10-05T03:02:20.061Z,99166.81
2023-10-05T03:03:22.875Z,99168.59
2023-10-05T03:04:43.157Z,99159.34
2023-10-05T03:05:45.913Z,99155.03
2023-10-05T03:06:53.345Z,99165.81
2023-10-05T03:07:57.963Z,99165.22
2023-10-05T03:09:08.277Z,99163.66
2023-10-05T03:10:17.484Z,99159.94
2023-10-05T03:11:20.650Z,99158.16
2023-10-05T03:12:24.496Z,99168.59
2023-10-05T03:13:30.094Z,99169.75
2023-10-05T03:14:35.194Z,99164.44
2023-10-05T03:15:39.175Z,99167.59
2023-10-05T03:16:45.107Z,99169.56
2023-10-05T03:17:49.857Z,99177.03
2023-10-05T03:18:53.215Z,99177.00
2023-10-05T03:19:55.986Z,99175.44
2023-10-05T03:20:59.429Z,99177.00
2023-10-05T03:22:06.915Z,99184.09
2023-10-05T03:23:13.210Z,99182.53
2023-10-05T03:24:15.959Z,99177.41
2023-10-05T03:25:18.993Z,99180.16
2023-10-05T03:26:21.702Z,99177.78
2023-10-05T03:27:24.318Z,99171.72
2023-10-05T03:28:28.956Z,99166.78
2023-10-05T03:29:36.690Z,99163.06
2023-10-05T03:30:39.748Z,99165.63
2023-10-05T03:31:55.122Z,99173.84
2023-10-05T03:33:02.029Z,99164.41
2023-10-05T03:34:09.091Z,99172.66
2023-10-05T03:35:12.478Z,99170.72
2023-10-05T03:36:15.669Z,99167.56
2023-10-05T03:37:18.511Z,99168.94
2023-10-05T03:38:23.811Z,99161.28
2023-10-05T03:39:30.016Z,99164.41
2023-10-05T03:40:38.903Z,99162.66
2023-10-05T03:41:41.622Z,99164.41
2023-10-05T03:42:47.750Z,99164.41
2023-10-05T03:43:56.829Z,99163.25
2023-10-05T03:45:05.435Z,99160.69
2023-10-05T03:46:08.790Z,99168.75
2023-10-05T03:47:12.922Z,99164.59
2023-10-05T03:48:16.260Z,99165.59
2023-10-05T03:49:23.109Z,99165.00
2023-10-05T03:50:26.316Z,99162.44
2023-10-05T03:51:32.653Z,99162.84
2023-10-05T03:52:35.742Z,99152.03
2023-10-05T03:53:38.368Z,99161.28
2023-10-05T03:54:40.892Z,99156.94
2023-10-05T03:55:43.489Z,99162.84
2023-10-05T03:56:47.624Z,99147.88
2023-10-05T03:57:51.265Z,99151.22
2023-10-05T03:58:55.584Z,99154.59
2023-10-05T04:00:01.527Z,99161.28
2023-10-05T04:01:18.757Z,99164.41
2023-10-05T04:02:21.940Z,99154.19
2023-10-05T04:03:26.776Z,99156.16
2023-10-05T04:04:35.081Z,99156.75
2023-10-05T04:05:41.403Z,99157.72
2023-10-05T04:06:46.023Z,99162.41
2023-10-05T04:07:49.388Z,99162.41
2023-10-05T04:08:58.148Z,99167.53
2023-10-05T04:10:03.527Z,99170.09
2023-10-05T04:11:06.218Z,99160.84
2023-10-05T04:12:11.638Z,99165.38
2023-10-05T04:13:25.469Z,99159.47
2023-10-05T04:14:29.968Z,99156.53
2023-10-05T04:15:33.097Z,99158.09
2023-10-05T04:16:36.067Z,99157.31
2023-10-05T04:17:41.794Z,99154.56
2023-10-05T04:18:48.242Z,99150.66
2023-10-05T04:20:58.496Z,99162.03
2023-10-05T04:22:01.228Z,99153.78
2023-10-05T04:23:04.609Z,99158.88
2023-10-05T04:24:07.680Z,99151.59
2023-10-05T04:25:10.473Z,99155.75
2023-10-05T04:26:13.165Z,99158.31
2023-10-05T04:27:19.377Z,99158.47
2023-10-05T04:28:42.014Z,99161.22
2023-10-05T04:29:44.660Z,99165.97
2023-10-05T04:30:47.387Z,99160.47
2023-10-05T04:31:50.142Z,99169.09
2023-10-05T04:32:53.805Z,99161.28
2023-10-05T04:33:57.562Z,99166.97
2023-10-05T04:35:02.332Z,99169.53
2023-10-05T04:36:06.289Z,99163.22
2023-10-05T04:37:08.961Z,99168.13
2023-10-05T04:38:12.260Z,99164.78
2023-10-05T04:39:23.083Z,99166.59
2023-10-05T04:40:26.354Z,99172.31
2023-10-05T04:41:34.918Z,99171.13
2023-10-05T04:42:37.526Z,99182.91
2023-10-05T04:43:41.649Z,99177.00
2023-10-05T04:44:47.116Z,99178.97
2023-10-05T04:45:51.281Z,99185.66
2023-10-05T04:46:54.505Z,99179.00
2023-10-05T04:48:00.752Z,99186.66
2023-10-05T04:49:14.026Z,99181.53
2023-10-05T04:50:18.433Z,99187.28
2023-10-05T04:51:21.661Z,99189.22
2023-10-05T04:52:25.252Z,99189.81
2023-10-05T04:53:29.014Z,99184.91
2023-10-05T04:54:36.197Z,99188.44
2023-10-05T04:55:43.931Z,99188.63
2023-10-05T04:57:04.600Z,99184.88
2023-10-05T04:58:22.258Z,99189.22
2023-10-05T04:59:38.552Z,99191.41
2023-10-05T05:00:47.585Z,99192.97
2023-10-05T05:01:53.213Z,99182.53
2023-10-05T05:03:06.938Z,99192.56
2023-10-05T05:04:28.939Z,99195.13
2023-10-05T05:05:58.561Z,99195.53
2023-10-05T05:07:02.453Z,99196.31
2023-10-05T05:08:06.900Z,99192.00
2023-10-05T05:09:13.517Z,99193.56
2023-10-05T05:10:21.934Z,99198.47
2023-10-05T05:11:24.675Z,99189.22
2023-10-05T05:12:28.105Z,99192.78
2023-10-05T05:13:31.159Z,99190.22
2023-10-05T05:14:48.394Z,99188.06
2023-10-05T05:15:51.960Z,99198.28
2023-10-05T05:16:55.032Z,99195.53
2023-10-05T05:17:59.803Z,99198.69
2023-10-05T05:19:03.231Z,99200.66
2023-10-05T05:20:12.758Z,99202.41
2023-10-05T05:21:16.184Z,99214.81
2023-10-05T05:22:22.432Z,99215.59
2023-10-05T05:23:25.456Z,99209.31
2023-10-05T05:24:30.767Z,99211.69
2023-10-05T05:25:33.617Z,99214.44
2023-10-05T05:26:36.260Z,99208.91
2023-10-05T05:27:39.107Z,99218.19
2023-10-05T05:28:44.686Z,99212.47
2023-10-05T05:29:48.279Z,99213.41
2023-10-05T05:30:51.847Z,99209.44
2023-10-05T05:31:54.849Z,99209.22
2023-10-05T05:33:00.718Z,99203.31
2023-10-05T05:34:03.688Z,99205.25
2023-10-05T05:35:09.617Z,99203.25
2023-10-05T05:36:14.732Z,99205.00
2023-10-05T05:37:31.578Z,99199.66
2023-10-05T05:38:34.690Z,99203.34
2023-10-05T05:39:40.419Z,99206.28
2023-10-05T05:40:44.625Z,99194.63
2023-10-05T05:41:57.238Z,99209.00
2023-10-05T05:43:00.007Z,99208.06
2023-10-05T05:44:04.388Z,99216.53
2023-10-05T05:45:16.949Z,99212.97
2023-10-05T05:46:19.589Z,99215.53
2023-10-05T05:47:22.225Z,99216.53
2023-10-05T05:48:25.683Z,99211.41
2023-10-05T05:49:29.123Z,99215.91
2023-10-05T05:50:31.927Z,99217.50
2023-10-05T05:51:34.680Z,99218.47
2023-10-05T05:52:38.241Z,99210.56
2023-10-05T05:53:43.142Z,99206.59
2023-10-05T05:54:48.819Z,99216.00
2023-10-05T05:55:56.710Z,99215.28
2023-10-05T05:56:59.418Z,99221.56
2023-10-05T05:58:02.100Z,99218.88
2023-10-05T05:59:05.255Z,99218.72
2023-10-05T06:00:13.031Z,99218.78
2023-10-05T06:01:15.988Z,99225.31
2023-10-05T06:02:18.778Z,99223.81
2023-10-05T06:03:21.967Z,99222.69
2023-10-05T06:04:26.771Z,99223.56
2023-10-05T06:05:29.681Z,99224.97
2023-10-05T06:06:32.326Z,99212.53
2023-10-05T06:07:35.047Z,99221.25
2023-10-05T06:08:37.872Z,99222.56
2023-10-05T06:09:44.224Z,99220.22
2023-10-05T06:10:48.330Z,99219.38
2023-10-05T06:11:51.006Z,99216.41
2023-10-05T06:12:53.622Z,99220.16
2023-10-05T06:13:56.151Z,99209.34
2023-10-05T06:14:58.916Z,99211.31
2023-10-05T06:16:01.660Z,99210.84
2023-10-05T06:17:04.787Z,99215.41
2023-10-05T06:18:08.486Z,99211.41
2023-10-05T06:19:11.493Z,99208.66
2023-10-05T06:20:17.270Z,99203.47
2023-10-05T06:21:20.575Z,99206.34
2023-10-05T06:22:23.525Z,99200.34
2023-10-05T06:23:26.088Z,99207.53
2023-10-05T06:24:28.869Z,99203.38
2023-10-05T06:25:32.795Z,99206.28
2023-10-05T06:26:35.718Z,99203.47
2023-10-05T06:27:38.386Z,99200.91
2023-10-05T06:28:41.164Z,99197.72
2023-10-05T06:29:43.876Z,99202.22
2023-10-05T06:30:46.646Z,99198.31
2023-10-05T06:31:49.281Z,99194.22
2023-10-05T06:32:54.766Z,99198.59
2023-10-05T06:33:57.572Z,99194.44
2023-10-05T06:35:00.172Z,99191.81
2023-10-05T06:36:06.119Z,99191.03
2023-10-05T06:37:08.725Z,99182.59
2023-10-05T06:38:11.380Z,99180.16
2023-10-05T06:39:24.741Z,99178.66
2023-10-05T06:40:30.965Z,99185.34
2023-10-05T06:41:35.422Z,99190.94
2023-10-05T06:42:41.235Z,99185.19
2023-10-05T06:43:43.840Z,99193.00
2023-10-05T06:44:46.774Z,99189.31
2023-10-05T06:45:50.272Z,99189.09
2023-10-05T06:46:54.646Z,99187.59
2023-10-05T06:47:57.823Z,99184.81
2023-10-05T06:49:02.335Z,99187.03
2023-10-05T06:50:10.086Z,99185.88
2023-10-05T06:51:14.554Z,99181.03
2023-10-05T06:52:18.317Z,99181.41
2023-10-05T06:53:21.066Z,99182.66
2023-10-05T06:54:23.723Z,99189.91
2023-10-05T06:55:26.498Z,99179.28
2023-10-05T06:56:29.264Z,99182.78
2023-10-05T06:57:31.852Z,99191.06
2023-10-05T06:58:34.701Z,99182.84
2023-10-05T06:59:39.239Z,99187.56
2023-10-05T07:00:41.826Z,99186.78
2023-10-05T07:01:44.624Z,99174.13
2023-10-05T07:02:52.477Z,99180.34
2023-10-05T07:03:57.207Z,99176.78
2023-10-05T07:05:00.307Z,99170.81
2023-10-05T07:06:05.987Z,99173.53
2023-10-05T07:07:08.730Z,99175.56
2023-10-05T07:08:13.644Z,99174.78
2023-10-05T07:09:16.249Z,99175.88
2023-10-05T07:10:23.332Z,99180.94
2023-10-05T07:11:25.994Z,99181.22
2023-10-05T07:12:28.712Z,99180.81
2023-10-05T07:13:31.416Z,99179.63
2023-10-05T07:14:34.613Z,99181.00
2023-10-05T07:15:37.392Z,99193.94
2023-10-05T07:16:39.955Z,99188.28
2023-10-05T07:17:43.523Z,99190.81
2023-10-05T07:18:46.661Z,99180.66
2023-10-05T07:19:51.131Z,99188.44
2023-10-05T07:20:53.804Z,99196.31
2023-10-05T07:21:56.439Z,99197.56
2023-10-05T07:23:00.410Z,99203.88
2023-10-05T07:24:03.043Z,99188.78
2023-10-05T07:25:07.986Z,99194.63
2023-10-05T07:26:10.873Z,99191.00
2023-10-05T07:27:13.481Z,99189.06
2023-10-05T07:28:16.398Z,99191.56
2023-10-05T07:29:30.716Z,99194.81
2023-10-05T07:30:34.746Z,99191.22
2023-10-05T07:31:37.400Z,99187.72
2023-10-05T07:32:42.032Z,99175.66
2023-10-05T07:33:44.863Z,99184.84
2023-10-05T07:34:49.672Z,99186.41
2023-10-05T07:35:55.124Z,99180.00
2023-10-05T07:36:58.710Z,99180.00
2023-10-05T07:38:02.709Z,99181.03
2023-10-05T07:39:06.228Z,99174.56
2023-10-05T07:40:10.202Z,99176.63
2023-10-05T07:41:13.011Z,99176.63
2023-10-05T07:42:15.648Z,99169.59
2023-10-05T07:43:18.308Z,99174.75
2023-10-05T07:44:21.282Z,99169.34
2023-10-05T07:45:24.012Z,99166.94
2023-10-05T07:46:26.961Z,99170.16
2023-10-05T07:47:29.801Z,99166.22
2023-10-05T07:48:32.807Z,99169.47
2023-10-05T07:49:36.069Z,99174.22
2023-10-05T07:50:39.453Z,99175.56
2023-10-05T07:51:43.289Z,99173.00
2023-10-05T07:52:46.379Z,99163.06
2023-10-05T07:53:49.101Z,99171.38
2023-10-05T07:54:53.088Z,99170.38
2023-10-05T07:55:55.879Z,99162.84
2023-10-05T07:56:58.504Z,99169.06
2023-10-05T07:58:03.656Z,99165.63
2023-10-05T07:59:08.051Z,99165.09
2023-10-05T08:00:15.008Z,99159.19
2023-10-05T08:01:19.798Z,99158.41
2023-10-05T08:02:22.618Z,99149.81
2023-10-05T08:03:25.358Z,99155.31
2023-10-05T08:04:29.056Z,99154.53
2023-10-05T08:05:32.300Z,99149.59
2023-10-05T08:06:34.962Z,99152.19
2023-10-05T08:07:37.597Z,99153.19
2023-10-05T08:08:42.396Z,99157.34
2023-10-05T08:09:44.993Z,99159.19
2023-10-05T08:10:47.924Z,99159.97
2023-10-05T08:11:54.781Z,99158.19
2023-10-05T08:12:57.350Z,99152.94
2023-10-05T08:14:00.010Z,99151.13
2023-10-05T08:15:03.167Z,99155.03
2023-10-05T08:16:09.111Z,99148.00
2023-10-05T08:17:13.722Z,99150.44
2023-10-05T08:18:16.278Z,99151.50
2023-10-05T08:19:22.422Z,99147.22
2023-10-05T08:20:28.713Z,99147.50
2023-10-05T08:21:31.614Z,99147.66
2023-10-05T08:22:37.897Z,99149.31
2023-10-05T08:23:41.226Z,99141.56
2023-10-05T08:24:44.657Z,99141.91
2023-10-05T08:25:47.907Z,99136.22
2023-10-05T08:26:55.022Z,99135.31
2023-10-05T08:27:57.797Z,99129.66
2023-10-05T08:29:00.876Z,99127.72
2023-10-05T08:30:04.735Z,99132.31
2023-10-05T08:31:08.841Z,99134.16
2023-10-05T08:32:15.632Z,99130.69
2023-10-05T08:33:20.715Z,99128.66
2023-10-05T08:34:23.671Z,99137.56
2023-10-05T08:35:27.506Z,99129.88
2023-10-05T08:36:31.892Z,99130.81
2023-10-05T08:37:45.783Z,99132.28
2023-10-05T08:38:53.783Z,99122.72
2023-10-05T08:39:57.624Z,99125.91
2023-10-05T08:41:03.178Z,99124.09
2023-10-05T08:42:08.896Z,99119.78
2023-10-05T08:43:12.263Z,99121.69
2023-10-05T08:44:27.659Z,99119.78
2023-10-05T08:45:35.896Z,99123.75
2023-10-05T08:46:43.534Z,99116.53
2023-10-05T08:47:47.495Z,99123.47
2023-10-05T08:48:50.970Z,99115.44
2023-10-05T08:49:53.605Z,99113.69
2023-10-05T08:51:22.509Z,99120.22
2023-10-05T08:52:25.220Z,99114.22
2023-10-05T08:53:29.212Z,99109.34
2023-10-05T08:54:34.867Z,99109.25
2023-10-05T08:55:38.943Z,99111.19
2023-10-05T08:56:48.296Z,99113.50
2023-10-05T08:57:53.934Z,99103.84
2023-10-05T08:59:00.619Z,99103.63
2023-10-05T09:00:07.789Z,99103.25
2023-10-05T09:01:34.361Z,99107.41
2023-10-05T09:02:38.349Z,99111.03
2023-10-05T09:03:41.238Z,99106.16
2023-10-05T09:05:08.861Z,99108.28
2023-10-05T09:06:37.690Z,99120.56
2023-10-05T09:07:40.462Z,99106.19
2023-10-05T09:08:56.197Z,99110.47
2023-10-05T09:09:59.142Z,99121.72
2023-10-05T09:11:09.958Z,99107.44
2023-10-05T09:12:36.317Z,99111.28
2023-10-05T09:13:47.843Z,99104.91
2023-10-05T09:15:10.527Z,99098.38
2023-10-05T09:16:23.598Z,99102.50
2023-10-05T09:17:26.459Z,99095.56
2023-10-05T09:18:29.103Z,99098.66
2023-10-05T09:19:34.748Z,99097.56
2023-10-05T09:20:40.062Z,99095.03
2023-10-05T09:22:07.052Z,99092.50
2023-10-05T09:23:14.983Z,99084.50
2023-10-05T09:24:22.746Z,99086.00
2023-10-05T09:25:31.917Z,99073.22
2023-10-05T09:26:40.605Z,99071.84
2023-10-05T09:27:52.501Z,99069.09
2023-10-05T09:29:15.384Z,99068.19
2023-10-05T09:30:22.717Z,99073.53
2023-10-05T09:31:43.412Z,99076.13
2023-10-05T09:32:46.155Z,99071.19
2023-10-05T09:34:05.172Z,99071.53
2023-10-05T09:35:12.051Z,99075.06
2023-10-05T09:36:20.862Z,99067.75
2023-10-05T09:37:27.728Z,99070.72
2023-10-05T09:38:33.037Z,99064.44
2023-10-05T09:39:44.951Z,99064.03
2023-10-05T09:40:55.215Z,99073.09
2023-10-05T09:42:02.546Z,99075.03
2023-10-05T09:43:07.157Z,99066.38
2023-10-05T09:44:17.059Z,99059.13
2023-10-05T09:45:23.770Z,99064.97
2023-10-05T09:46:33.026Z,99053.84
2023-10-05T09:47:37.199Z,99063.06
2023-10-05T09:48:40.697Z,99059.66
2023-10-05T09:49:46.704Z,99058.00
2023-10-05T09:50:50.241Z,99054.78
2023-10-05T09:51:55.365Z,99059.59
2023-10-05T09:53:03.229Z,99051.03
2023-10-05T09:54:11.708Z,99048.72
2023-10-05T09:55:14.812Z,99042.47
2023-10-05T09:56:33.066Z,99044.06
2023-10-05T09:57:53.332Z,99039.66
2023-10-05T09:59:00.276Z,99047.34
2023-10-05T10:00:11.024Z,99038.28
2023-10-05T10:01:23.232Z,99037.75
2023-10-05T10:02:33.656Z,99045.56
2023-10-05T10:03:38.175Z,99031.44
2023-10-05T10:04:42.232Z,99039.13
2023-10-05T10:06:11.417Z,99027.72
2023-10-05T10:07:17.630Z,99025.50
2023-10-05T10:08:25.058Z,99028.59
2023-10-05T10:09:28.317Z,99020.66
2023-10-05T10:10:31.357Z,99024.53
2023-10-05T10:11:34.598Z,99017.78
2023-10-05T10:12:42.196Z,99022.91
2023-10-05T10:14:07.209Z,99019.03
2023-10-05T10:15:36.333Z,99025.16
2023-10-05T10:16:43.133Z,99016.06
2023-10-05T10:18:04.701Z,99018.97
2023-10-05T10:19:20.524Z,99015.13
2023-10-05T10:20:39.199Z,99011.34
2023-10-05T10:21:47.486Z,99000.69
2023-10-05T10:22:54.220Z,99011.22
2023-10-05T10:24:08.188Z,99007.22
2023-10-05T10:25:43.009Z,99001.03
2023-10-05T10:27:14.657Z,98997.72
2023-10-05T10:28:41.303Z,98992.38
2023-10-05T10:29:56.548Z,98997.34
2023-10-05T10:31:22.901Z,98996.88
2023-10-05T10:32:34.088Z,98992.03
2023-10-05T10:33:36.924Z,98990.66
2023-10-05T10:34:53.531Z,98982.69
2023-10-05T10:36:01.084Z,98990.03
2023-10-05T10:37:04.670Z,98986.53
2023-10-05T10:38:11.378Z,98979.56
2023-10-05T10:39:30.413Z,98981.13
2023-10-05T10:40:34.127Z,98968.59
2023-10-05T10:42:08.922Z,98964.72
2023-10-05T10:43:14.458Z,98964.31
2023-10-05T10:44:24.412Z,98953.91
2023-10-05T10:45:30.665Z,98959.59
2023-10-05T10:46:35.607Z,98952.41
2023-10-05T10:47:47.023Z,98953.06
2023-10-05T10:49:00.787Z,98951.28
2023-10-05T10:50:16.802Z,98948.16
2023-10-05T10:51:22.070Z,98946.69
2023-10-05T10:52:32.570Z,98945.81
2023-10-05T10:53:41.112Z,98949.84
2023-10-05T10:54:52.167Z,98952.56
2023-10-05T10:56:24.070Z,98946.75
2023-10-05T10:57:26.761Z,98940.66
2023-10-05T10:58:32.610Z,98936.44
2023-10-05T10:59:42.400Z,98927.16
2023-10-05T11:00:57.700Z,98932.97
2023-10-05T11:02:11.987Z,98934.50
2023-10-05T11:03:17.751Z,98929.22
2023-10-05T11:04:50.319Z,98930.94
2023-10-05T11:06:02.225Z,98937.25
2023-10-05T11:07:10.647Z,98921.41
2023-10-05T11:08:14.692Z,98923.34
2023-10-05T11:09:17.576Z,98913.22
2023-10-05T11:10:23.443Z,98919.84
2023-10-05T11:11:26.932Z,98925.44
2023-10-05T11:12:30.319Z,98921.34
2023-10-05T11:13:37.523Z,98917.88
2023-10-05T11:14:43.663Z,98913.66
2023-10-05T11:15:59.948Z,98925.06
2023-10-05T11:17:12.246Z,98909.06
2023-10-05T11:18:19.708Z,98924.59
2023-10-05T11:19:33.046Z,98916.72
2023-10-05T11:20:37.963Z,98917.47
2023-10-05T11:21:49.651Z,98923.44
2023-10-05T11:23:04.794Z,98917.78
2023-10-05T11:24:08.220Z,98922.41
2023-10-05T11:25:16.293Z,98916.22
2023-10-05T11:26:19.292Z,98916.88
2023-10-05T11:27:24.418Z,98915.69
2023-10-05T11:28:27.300Z,98913.00
2023-10-05T11:29:31.952Z,98902.94
2023-10-05T11:31:01.370Z,98908.47
2023-10-05T11:32:40.900Z,98911.53
2023-10-05T11:34:28.039Z,98910.25
2023-10-05T11:35:18.209Z,98914.25
2023-10-05T11:36:29.419Z,98911.56
2023-10-05T11:37:34.222Z,98899.53
2023-10-05T11:38:37.285Z,98912.94
2023-10-05T11:39:41.495Z,98902.63
2023-10-05T11:40:50.844Z,98898.22
2023-10-05T11:41:57.881Z,98901.34
2023-10-05T11:43:06.153Z,98896.47
2023-10-05T11:44:13.357Z,98898.81
2023-10-05T11:45:17.989Z,98915.88
2023-10-05T11:46:27.853Z,98901.94
2023-10-05T11:47:46.070Z,98912.63
2023-10-05T11:48:57.526Z,98903.53
2023-10-05T11:50:34.263Z,98902.53
2023-10-05T11:51:43.662Z,98902.69
2023-10-05T11:52:46.293Z,98889.56
2023-10-05T11:53:51.850Z,98889.13
2023-10-05T11:54:54.696Z,98891.59
2023-10-05T11:55:57.396Z,98890.19
2023-10-05T11:57:02.843Z,98890.50
2023-10-05T11:58:06.437Z,98890.13
2023-10-05T11:59:12.316Z,98892.06
2023-10-05T12:00:18.178Z,98885.00
2023-10-05T12:01:21.888Z,98874.50
2023-10-05T12:02:24.935Z,98878.34
2023-10-05T12:03:28.022Z,98880.84
2023-10-05T12:04:31.074Z,98877.94
2023-10-05T12:05:36.063Z,98875.63
2023-10-05T12:06:40.824Z,98864.66
2023-10-05T12:07:47.437Z,98873.88
2023-10-05T12:08:55.086Z,98867.00
2023-10-05T12:09:58.298Z,98872.34
2023-10-05T12:11:00.950Z,98875.13
2023-10-05T12:12:05.035Z,98867.69
2023-10-05T12:13:07.683Z,98873.91
2023-10-05T12:14:10.255Z,98863.84
2023-10-05T12:15:18.646Z,98866.19
2023-10-05T12:16:21.649Z,98859.38
2023-10-05T12:17:24.403Z,98853.78
2023-10-05T12:18:27.486Z,98854.34
2023-10-05T12:19:30.511Z,98853.69
2023-10-05T12:20:33.325Z,98854.66
2023-10-05T12:21:35.990Z,98849.88
2023-10-05T12:22:38.841Z,98856.47
2023-10-05T12:23:41.472Z,98858.09
2023-10-05T12:24:44.230Z,98865.75
2023-10-05T12:25:47.208Z,98869.41
2023-10-05T12:26:52.126Z,98860.31
2023-10-05T12:27:54.820Z,98864.19
2023-10-05T12:28:57.382Z,98863.28
2023-10-05T12:30:00.905Z,98859.63
2023-10-05T12:31:03.888Z,98873.81
2023-10-05T12:32:11.289Z,98859.56
2023-10-05T12:33:14.426Z,98856.06
2023-10-05T12:35:24.397Z,98858.75
2023-10-05T12:36:27.102Z,98858.50
2023-10-05T12:37:31.046Z,98857.81
2023-10-05T12:38:33.698Z,98855.59
2023-10-05T12:39:36.283Z,98853.88
2023-10-05T12:40:42.602Z,98849.47
2023-10-05T12:41:47.895Z,98855.13
2023-10-05T12:43:09.722Z,98841.72
2023-10-05T12:44:16.558Z,98845.97
2023-10-05T12:45:26.349Z,98843.75
2023-10-05T12:46:34.674Z,98850.28
2023-10-05T12:47:41.234Z,98843.53
2023-10-05T12:48:45.467Z,98846.50
2023-10-05T12:49:49.275Z,98848.19
2023-10-05T12:50:52.055Z,98840.00
2023-10-05T12:51:54.754Z,98844.53
2023-10-05T12:53:01.048Z,98835.16
2023-10-05T12:54:29.831Z,98847.38
2023-10-05T12:55:33.676Z,98841.41
2023-10-05T12:56:40.106Z,98835.75
2023-10-05T12:57:45.425Z,98838.63
2023-10-05T12:58:48.010Z,98835.53
2023-10-05T12:59:51.424Z,98840.28
2023-10-05T13:00:55.029Z,98837.81
2023-10-05T13:02:03.777Z,98836.97
2023-10-05T13:03:07.281Z,98833.09
2023-10-05T13:04:11.324Z,98833.88
2023-10-05T13:05:28.027Z,98832.81
2023-10-05T13:06:33.858Z,98843.06